Not for real navigation | The accuracy of this data is not assured | See disclaimer for more information
ICAO NAME COUNTRY WIND Kt GUST Kt VIS TEMP/DEW BARO
LECH Calamocha Spain 3 0 200 9/9 30.27
LECH 170400Z AUTO 06003KT 020V100 0200 R06/0150N FG VV001 09/09 Q1025 RERA
PAMY Mekoryuk, Mekoryuk Airport AK United States 26 33 400 -4/-5 29.31
PAMY 170418Z AUTO 08026G33KT 0.25SM +SN FZFG BKN009 OVC013 M04/M05 A2931 RMK AO2 PK WND 09036/0358 CIG 005V011 P0000 FZRANO
WADL 9 0 500 24/24 29.88
WADL 170430Z 16009KT 100V180 0500 +RA FEW015CB SCT016 24/24 Q1012 TEMPO TL0530 +RA RMK CB ALL RWY
LTCJ Batman Turkey 2 0 600 3/3 30.06
LTCJ 170420Z 21002KT 0600 R02/P1500N R20/P1500N -RA BCFG OVC002 03/03 Q1018 R02/2///74
YCFS 22 0 600 21/20 29.94
YCFS 170430Z AUTO 23022KT 0600 +TSRA SCT007 BKN013 BKN021 21/20 Q1014

Show more

Close Menu